createdAt,value
2019-02-17T00:01:00.453Z,0.80
2019-02-17T00:03:29.095Z,0.70
2019-02-17T00:05:57.745Z,0.43
2019-02-17T00:08:26.362Z,0.47
2019-02-17T00:10:54.966Z,0.39
2019-02-17T00:13:23.822Z,0.31
2019-02-17T00:15:52.430Z,0.35
2019-02-17T00:18:21.096Z,0.34
2019-02-17T00:20:49.700Z,0.20
2019-02-17T00:23:18.373Z,0.24
2019-02-17T00:25:46.920Z,0.23
2019-02-17T00:28:15.607Z,0.25
2019-02-17T00:30:44.233Z,0.25
2019-02-17T00:33:12.920Z,0.28
2019-02-17T00:35:41.497Z,0.17
2019-02-17T00:38:10.379Z,0.21
2019-02-17T00:40:38.970Z,0.16
2019-02-17T00:43:07.569Z,0.15
2019-02-17T00:45:36.132Z,0.24
2019-02-17T00:48:04.830Z,0.43
2019-02-17T00:50:33.776Z,0.25
2019-02-17T00:53:02.449Z,0.13
2019-02-17T00:55:30.982Z,0.23
2019-02-17T00:57:59.667Z,0.48
2019-02-17T01:00:28.177Z,0.11
2019-02-17T01:02:57.034Z,0.09
2019-02-17T01:05:25.625Z,0.06
2019-02-17T01:07:54.235Z,-0.08
2019-02-17T01:10:22.787Z,0.03
2019-02-17T01:12:51.601Z,-0.04
2019-02-17T01:15:20.158Z,-0.13
2019-02-17T01:17:48.883Z,-0.17
2019-02-17T01:20:18.023Z,-0.18
2019-02-17T01:22:46.748Z,-0.25
2019-02-17T01:25:15.401Z,-0.19
2019-02-17T01:27:44.038Z,-0.26
2019-02-17T01:30:14.637Z,-0.10
2019-02-17T01:32:43.622Z,-0.09
2019-02-17T01:35:12.240Z,-0.14
2019-02-17T01:37:40.921Z,-0.23
2019-02-17T01:40:10.356Z,-0.26
2019-02-17T01:42:39.079Z,-0.32
2019-02-17T01:45:09.376Z,-0.36
2019-02-17T01:47:38.217Z,-0.35
2019-02-17T01:50:10.216Z,-0.36
2019-02-17T01:52:38.865Z,-0.37
2019-02-17T01:55:08.592Z,-0.37
2019-02-17T01:57:37.288Z,-0.35
2019-02-17T02:00:12.001Z,-0.39
2019-02-17T02:02:40.601Z,-0.36
2019-02-17T02:05:09.506Z,-0.38
2019-02-17T02:07:38.143Z,-0.08
2019-02-17T02:10:09.165Z,0.05
2019-02-17T02:12:37.756Z,-0.15
2019-02-17T02:15:09.461Z,-0.40
2019-02-17T02:17:38.114Z,-0.39
2019-02-17T02:20:09.877Z,-0.41
2019-02-17T02:22:38.554Z,-0.38
2019-02-17T02:25:07.854Z,-0.36
2019-02-17T02:27:36.490Z,-0.39
2019-02-17T02:30:08.315Z,-0.41
2019-02-17T02:32:37.078Z,-0.36
2019-02-17T02:35:06.318Z,-0.40
2019-02-17T02:37:35.177Z,-0.53
2019-02-17T02:40:04.376Z,-0.41
2019-02-17T02:42:33.032Z,-0.14
2019-02-17T02:45:01.642Z,-0.19
2019-02-17T02:47:30.354Z,-0.42
2019-02-17T02:49:59.086Z,-0.50
2019-02-17T02:52:27.799Z,-0.57
2019-02-17T02:54:56.382Z,-0.45
2019-02-17T02:57:25.149Z,-0.38
2019-02-17T02:59:53.779Z,-0.34
2019-02-17T03:02:22.535Z,-0.47
2019-02-17T03:04:51.110Z,-0.61
2019-02-17T03:07:19.812Z,-0.64
2019-02-17T03:09:48.396Z,-0.53
2019-02-17T03:12:17.167Z,-0.51
2019-02-17T03:14:45.782Z,-0.61
2019-02-17T03:17:14.436Z,-0.57
2019-02-17T03:19:43.057Z,-0.55
2019-02-17T03:22:11.704Z,-0.56
2019-02-17T03:24:40.343Z,-0.57
2019-02-17T03:27:08.966Z,-0.61
2019-02-17T03:29:37.615Z,-0.67
2019-02-17T03:32:07.304Z,-0.64
2019-02-17T03:34:38.418Z,-0.66
2019-02-17T03:37:07.117Z,-0.71
2019-02-17T03:39:35.882Z,-0.68
2019-02-17T03:42:04.486Z,-0.67
2019-02-17T03:44:33.070Z,-0.45
2019-02-17T03:47:01.654Z,-0.72
2019-02-17T03:49:30.241Z,-0.73
2019-02-17T03:51:58.820Z,-0.67
2019-02-17T03:54:27.379Z,-0.71
2019-02-17T03:56:56.086Z,-0.58
2019-02-17T03:59:24.654Z,-0.65
2019-02-17T04:01:53.357Z,-0.71
2019-02-17T04:04:21.919Z,-0.74
2019-02-17T04:06:50.598Z,-0.71
2019-02-17T04:09:19.208Z,-0.81
2019-02-17T04:11:47.897Z,-0.77
2019-02-17T04:14:16.457Z,-0.71
2019-02-17T04:16:45.062Z,-0.73
2019-02-17T04:19:14.116Z,-0.73
2019-02-17T04:21:42.739Z,-0.82
2019-02-17T04:24:11.310Z,-0.82
2019-02-17T04:26:39.915Z,-0.80
2019-02-17T04:29:10.291Z,-0.81
2019-02-17T04:31:38.852Z,-0.77
2019-02-17T04:34:07.500Z,-0.86
2019-02-17T04:36:36.062Z,-0.89
2019-02-17T04:39:06.241Z,-0.86
2019-02-17T04:41:34.878Z,-0.90
2019-02-17T04:44:03.471Z,-0.83
2019-02-17T04:46:32.189Z,-0.78
2019-02-17T04:49:00.839Z,-0.87
2019-02-17T04:51:29.716Z,-0.77
2019-02-17T04:53:58.354Z,-0.88
2019-02-17T04:56:27.009Z,-0.88
2019-02-17T04:58:55.591Z,-0.94
2019-02-17T05:01:24.259Z,-0.89
2019-02-17T05:03:52.878Z,-0.90
2019-02-17T05:06:21.418Z,-0.91
2019-02-17T05:08:51.210Z,-0.95
2019-02-17T05:11:19.825Z,-0.88
2019-02-17T05:13:48.440Z,-0.96
2019-02-17T05:16:17.113Z,-0.93
2019-02-17T05:18:45.686Z,-1.03
2019-02-17T05:21:14.400Z,-0.85
2019-02-17T05:23:43.066Z,-0.94
2019-02-17T05:26:11.726Z,-0.92
2019-02-17T05:28:40.510Z,-0.98
2019-02-17T05:31:09.254Z,-0.92
2019-02-17T05:33:37.807Z,-0.84
2019-02-17T05:36:06.542Z,-0.84
2019-02-17T05:38:35.178Z,-0.89
2019-02-17T05:41:03.742Z,-0.92
2019-02-17T05:43:32.339Z,-1.03
2019-02-17T05:46:01.023Z,-0.86
2019-02-17T05:48:29.756Z,-0.92
2019-02-17T05:50:59.124Z,-0.98
2019-02-17T05:53:27.696Z,-0.97
2019-02-17T05:55:56.568Z,-0.93
2019-02-17T05:58:25.176Z,-1.11
2019-02-17T06:01:03.226Z,-0.96
2019-02-17T06:03:24.087Z,-0.83
2019-02-17T06:05:52.766Z,-0.83
2019-02-17T06:08:21.526Z,-0.87
2019-02-17T06:10:50.114Z,-0.92
2019-02-17T06:13:18.758Z,-0.92
2019-02-17T06:15:47.387Z,-0.93
2019-02-17T06:18:16.063Z,-0.95
2019-02-17T06:20:44.655Z,-1.10
2019-02-17T06:23:13.258Z,-1.00
2019-02-17T06:25:41.842Z,-0.64
2019-02-17T06:28:10.586Z,-0.70
2019-02-17T06:30:39.285Z,-0.91
2019-02-17T06:33:07.907Z,-0.93
2019-02-17T06:35:36.482Z,-0.89
2019-02-17T06:38:05.173Z,-0.91
2019-02-17T06:40:33.731Z,-0.83
2019-02-17T06:43:02.336Z,-0.86
2019-02-17T06:45:30.930Z,-0.77
2019-02-17T06:47:59.582Z,-0.79
2019-02-17T06:50:28.136Z,-0.77
2019-02-17T06:52:56.713Z,-0.76
2019-02-17T06:55:29.821Z,-0.76
2019-02-17T06:57:58.378Z,-0.75
2019-02-17T07:00:28.577Z,-0.51
2019-02-17T07:02:57.814Z,-0.25
2019-02-17T07:05:42.709Z,-0.28
2019-02-17T07:08:11.638Z,-0.48
2019-02-17T07:10:40.157Z,-0.39
2019-02-17T07:13:08.977Z,-0.32
2019-02-17T07:15:37.519Z,-0.41
2019-02-17T07:18:06.093Z,-0.28
2019-02-17T07:20:34.658Z,-0.13
2019-02-17T07:23:03.793Z,0.04
2019-02-17T07:25:32.517Z,0.07
2019-02-17T07:28:01.233Z,0.05
2019-02-17T07:30:30.097Z,0.34
2019-02-17T07:32:58.680Z,0.50
2019-02-17T07:35:27.262Z,0.59
2019-02-17T07:37:55.930Z,0.85
2019-02-17T07:40:24.511Z,0.64
2019-02-17T07:42:53.115Z,0.74
2019-02-17T07:45:21.696Z,0.90
2019-02-17T07:47:50.352Z,0.98
2019-02-17T07:50:19.068Z,0.88
2019-02-17T07:52:47.664Z,1.00
2019-02-17T07:55:16.241Z,1.11
2019-02-17T07:57:44.813Z,1.30
2019-02-17T08:00:13.648Z,1.75
2019-02-17T08:02:42.308Z,1.88
2019-02-17T08:05:10.950Z,1.85
2019-02-17T08:07:39.593Z,1.73
2019-02-17T08:10:09.898Z,2.11
2019-02-17T08:12:38.679Z,2.32
2019-02-17T08:15:09.712Z,2.62
2019-02-17T08:17:38.306Z,2.54
2019-02-17T08:20:09.496Z,2.94
2019-02-17T08:22:38.724Z,2.97
2019-02-17T08:25:08.562Z,3.38
2019-02-17T08:27:37.306Z,3.66
2019-02-17T08:30:11.477Z,3.93
2019-02-17T08:32:40.160Z,4.06
2019-02-17T08:35:09.561Z,4.36
2019-02-17T08:37:38.208Z,4.46
2019-02-17T08:40:09.433Z,4.68
2019-02-17T08:42:38.057Z,4.91
2019-02-17T08:45:08.665Z,4.93
2019-02-17T08:47:37.629Z,5.09
2019-02-17T08:50:09.346Z,5.31
2019-02-17T08:52:38.102Z,5.51
2019-02-17T08:55:09.328Z,5.72
2019-02-17T08:57:38.166Z,5.86
2019-02-17T09:00:12.446Z,6.03
2019-02-17T09:02:41.062Z,6.14
2019-02-17T09:05:09.570Z,6.26
2019-02-17T09:07:38.421Z,6.35
2019-02-17T09:10:12.124Z,6.41
2019-02-17T09:12:40.753Z,6.43
2019-02-17T09:15:11.724Z,6.52
2019-02-17T09:17:40.350Z,6.60
2019-02-17T09:20:10.752Z,6.70
2019-02-17T09:22:39.488Z,6.88
2019-02-17T09:25:10.607Z,7.04
2019-02-17T09:27:39.438Z,6.98
2019-02-17T09:30:11.275Z,7.20
2019-02-17T09:32:40.238Z,7.15
2019-02-17T09:35:08.868Z,7.19
2019-02-17T09:37:37.504Z,7.38
2019-02-17T09:40:09.009Z,7.58
2019-02-17T09:42:37.559Z,7.77
2019-02-17T09:45:09.728Z,7.56
2019-02-17T09:47:38.377Z,7.99
2019-02-17T09:50:12.040Z,8.05
2019-02-17T09:52:40.648Z,8.18
2019-02-17T09:55:10.614Z,8.26
2019-02-17T09:57:39.672Z,8.58
2019-02-17T10:00:15.944Z,8.66
2019-02-17T10:02:44.627Z,8.95
2019-02-17T10:05:13.954Z,9.05
2019-02-17T10:07:42.631Z,9.37
2019-02-17T10:10:16.508Z,9.74
2019-02-17T10:12:45.122Z,10.06
2019-02-17T10:15:14.433Z,9.86
2019-02-17T10:17:42.970Z,10.37
2019-02-17T10:20:13.423Z,10.24
2019-02-17T10:22:42.149Z,10.51
2019-02-17T10:25:11.179Z,10.52
2019-02-17T10:27:39.802Z,10.42
2019-02-17T10:30:16.290Z,10.58
2019-02-17T10:32:44.956Z,10.68
2019-02-17T10:35:13.696Z,11.09
2019-02-17T10:37:42.321Z,11.49
2019-02-17T10:40:18.991Z,11.74
2019-02-17T10:42:47.554Z,12.34
2019-02-17T10:45:16.429Z,13.35
2019-02-17T10:47:45.050Z,14.04
2019-02-17T10:50:13.895Z,12.45
2019-02-17T10:52:42.527Z,12.27
2019-02-17T10:55:12.866Z,12.73
2019-02-17T10:57:41.541Z,12.31
2019-02-17T11:00:20.901Z,12.40
2019-02-17T11:02:49.730Z,12.43
2019-02-17T11:05:18.497Z,11.76
2019-02-17T11:07:47.110Z,12.76
2019-02-17T11:10:15.730Z,13.23
2019-02-17T11:12:44.438Z,13.54
2019-02-17T11:15:18.144Z,13.41
2019-02-17T11:17:47.108Z,13.69
2019-02-17T11:20:15.854Z,13.20
2019-02-17T11:22:44.572Z,13.55
2019-02-17T11:25:13.418Z,13.85
2019-02-17T11:27:42.185Z,13.60
2019-02-17T11:30:17.421Z,13.85
2019-02-17T11:32:46.106Z,13.61
2019-02-17T11:35:14.812Z,14.78
2019-02-17T11:37:45.186Z,15.36
2019-02-17T11:40:13.998Z,15.54
2019-02-17T11:42:42.911Z,15.55
2019-02-17T11:45:15.152Z,15.08
2019-02-17T11:47:44.016Z,14.50
2019-02-17T11:50:12.750Z,16.20
2019-02-17T11:52:41.413Z,18.05
2019-02-17T11:55:12.177Z,18.69
2019-02-17T11:57:41.971Z,18.13
2019-02-17T12:00:13.934Z,19.64
2019-02-17T12:02:43.196Z,20.59
2019-02-17T12:05:12.237Z,21.93
2019-02-17T12:07:40.878Z,19.67
2019-02-17T12:10:11.814Z,19.25
2019-02-17T12:12:42.187Z,16.45
2019-02-17T12:15:13.166Z,17.94
2019-02-17T12:17:42.042Z,18.48
2019-02-17T12:20:33.898Z,19.36
2019-02-17T12:23:04.298Z,19.13
2019-02-17T12:25:34.735Z,18.94
2019-02-17T12:28:07.884Z,18.25
2019-02-17T12:30:37.418Z,20.53
2019-02-17T12:33:06.181Z,22.26
2019-02-17T12:35:35.169Z,20.63
2019-02-17T12:38:04.042Z,19.84
2019-02-17T12:40:32.737Z,20.05
2019-02-17T12:43:01.813Z,20.41
2019-02-17T12:45:30.652Z,21.59
2019-02-17T12:47:59.373Z,18.69
2019-02-17T12:50:28.159Z,16.30
2019-02-17T12:52:56.777Z,15.79
2019-02-17T12:55:25.462Z,15.25
2019-02-17T12:57:54.048Z,15.30
2019-02-17T13:00:24.308Z,15.42
2019-02-17T13:02:53.053Z,14.71
2019-02-17T13:05:21.617Z,15.23
2019-02-17T13:07:50.406Z,15.81
2019-02-17T13:10:18.920Z,15.93
2019-02-17T13:12:47.655Z,15.80
2019-02-17T13:15:16.310Z,15.89
2019-02-17T13:17:44.918Z,14.96
2019-02-17T13:20:14.882Z,14.93
2019-02-17T13:22:43.584Z,15.73
2019-02-17T13:25:16.758Z,17.17
2019-02-17T13:27:45.691Z,15.94
2019-02-17T13:30:20.048Z,15.75
2019-02-17T13:32:48.872Z,16.30
2019-02-17T13:35:17.859Z,15.93
2019-02-17T13:37:47.175Z,16.29
2019-02-17T13:40:15.850Z,16.96
2019-02-17T13:42:44.622Z,18.66
2019-02-17T13:45:15.726Z,19.85
2019-02-17T13:47:44.582Z,20.22
2019-02-17T13:50:15.449Z,18.21
2019-02-17T13:52:44.075Z,17.23
2019-02-17T13:55:12.728Z,16.75
2019-02-17T13:57:41.752Z,16.52
2019-02-17T14:00:15.563Z,16.77
2019-02-17T14:02:44.189Z,17.39
2019-02-17T14:05:12.753Z,17.62
2019-02-17T14:07:41.678Z,16.41
2019-02-17T14:10:14.126Z,16.00
2019-02-17T14:12:42.996Z,14.38
2019-02-17T14:15:14.815Z,13.68
2019-02-17T14:17:43.453Z,13.64
2019-02-17T14:20:12.060Z,13.62
2019-02-17T14:22:40.725Z,13.36
2019-02-17T14:25:11.954Z,13.79
2019-02-17T14:27:40.625Z,13.44
2019-02-17T14:30:17.533Z,13.70
2019-02-17T14:32:46.300Z,13.87
2019-02-17T14:35:14.896Z,13.65
2019-02-17T14:37:43.569Z,13.45
2019-02-17T14:40:14.127Z,13.60
2019-02-17T14:42:44.013Z,13.33
2019-02-17T14:45:14.216Z,13.07
2019-02-17T14:47:43.518Z,13.03
2019-02-17T14:50:13.732Z,12.98
2019-02-17T14:52:42.390Z,13.21
2019-02-17T14:55:14.044Z,13.09
2019-02-17T14:57:42.782Z,13.01
2019-02-17T15:00:13.904Z,12.88
2019-02-17T15:02:42.692Z,12.80
2019-02-17T15:05:11.795Z,12.82
2019-02-17T15:07:40.598Z,12.63
2019-02-17T15:10:11.055Z,12.66
2019-02-17T15:12:40.151Z,12.78
2019-02-17T15:15:13.713Z,12.61
2019-02-17T15:17:42.828Z,12.26
2019-02-17T15:20:13.938Z,12.20
2019-02-17T15:22:42.978Z,12.27
2019-02-17T15:25:12.314Z,12.02
2019-02-17T15:27:41.087Z,12.05
2019-02-17T15:30:12.559Z,12.02
2019-02-17T15:32:41.160Z,12.11
2019-02-17T15:35:09.824Z,12.20
2019-02-17T15:37:38.550Z,12.03
2019-02-17T15:40:10.984Z,11.71
2019-02-17T15:42:39.589Z,11.73
2019-02-17T15:45:12.732Z,11.54
2019-02-17T15:47:41.538Z,11.46
2019-02-17T15:50:11.712Z,11.33
2019-02-17T15:52:40.290Z,11.10
2019-02-17T15:55:11.463Z,11.14
2019-02-17T15:57:40.165Z,11.05
2019-02-17T16:00:16.872Z,10.82
2019-02-17T16:02:45.648Z,10.73
2019-02-17T16:05:14.412Z,10.42
2019-02-17T16:07:43.240Z,10.24
2019-02-17T16:10:13.228Z,10.06
2019-02-17T16:12:41.975Z,9.86
2019-02-17T16:15:19.611Z,9.62
2019-02-17T16:17:48.177Z,9.32
2019-02-17T16:20:16.727Z,9.20
2019-02-17T16:22:45.328Z,9.15
2019-02-17T16:25:13.931Z,9.07
2019-02-17T16:27:42.502Z,9.09
2019-02-17T16:30:28.511Z,8.96
2019-02-17T16:32:57.407Z,8.65
2019-02-17T16:35:25.897Z,8.57
2019-02-17T16:37:54.405Z,8.18
2019-02-17T16:40:22.904Z,8.01
2019-02-17T16:42:51.460Z,7.70
2019-02-17T16:45:20.365Z,7.66
2019-02-17T16:47:48.917Z,7.63
2019-02-17T16:50:20.589Z,7.62
2019-02-17T16:52:49.144Z,7.77
2019-02-17T16:55:17.626Z,7.82
2019-02-17T16:57:46.267Z,7.51
2019-02-17T17:00:22.948Z,7.45
2019-02-17T17:02:52.913Z,7.28
2019-02-17T17:05:22.448Z,7.37
2019-02-17T17:07:51.150Z,7.55
2019-02-17T17:10:19.688Z,7.43
2019-02-17T17:12:48.217Z,7.05
2019-02-17T17:15:17.276Z,6.95
2019-02-17T17:17:45.811Z,6.94
2019-02-17T17:20:22.156Z,6.86
2019-02-17T17:22:50.952Z,6.66
2019-02-17T17:25:19.466Z,6.42
2019-02-17T17:27:48.115Z,6.39
2019-02-17T17:30:18.032Z,6.27
2019-02-17T17:32:46.578Z,6.14
2019-02-17T17:35:15.050Z,6.08
2019-02-17T17:37:45.360Z,6.12
2019-02-17T17:40:15.519Z,6.03
2019-02-17T17:42:44.127Z,6.07
2019-02-17T17:45:17.863Z,5.82
2019-02-17T17:47:46.496Z,5.86
2019-02-17T17:50:15.824Z,5.65
2019-02-17T17:52:44.412Z,5.39
2019-02-17T17:55:13.744Z,5.45
2019-02-17T17:57:42.363Z,5.41
2019-02-17T18:00:19.663Z,5.29
2019-02-17T18:02:48.199Z,5.29
2019-02-17T18:05:16.683Z,5.10
2019-02-17T18:07:45.293Z,5.26
2019-02-17T18:10:17.383Z,5.08
2019-02-17T18:12:45.947Z,4.87
2019-02-17T18:15:18.475Z,4.78
2019-02-17T18:17:54.600Z,4.89
2019-02-17T18:20:19.237Z,4.92
2019-02-17T18:22:47.966Z,4.85
2019-02-17T18:25:16.589Z,4.71
2019-02-17T18:27:45.157Z,4.69
2019-02-17T18:30:18.984Z,4.66
2019-02-17T18:32:47.592Z,4.65
2019-02-17T18:35:20.118Z,4.60
2019-02-17T18:37:46.462Z,4.45
2019-02-17T18:40:17.932Z,4.51
2019-02-17T18:42:46.498Z,4.38
2019-02-17T18:45:16.084Z,4.39
2019-02-17T18:47:44.645Z,4.22
2019-02-17T18:50:14.600Z,4.09
2019-02-17T18:52:43.127Z,4.09
2019-02-17T18:55:13.045Z,4.24
2019-02-17T18:57:49.507Z,4.37
2019-02-17T19:00:23.498Z,4.30
2019-02-17T19:02:52.134Z,3.96
2019-02-17T19:05:31.108Z,3.94
2019-02-17T19:07:51.332Z,3.92
2019-02-17T19:10:19.957Z,3.86
2019-02-17T19:12:48.613Z,3.76
2019-02-17T19:15:19.369Z,3.79
2019-02-17T19:17:48.262Z,3.71
2019-02-17T19:20:20.010Z,3.76
2019-02-17T19:22:48.550Z,3.72
2019-02-17T19:25:17.049Z,3.77
2019-02-17T19:27:45.618Z,3.79
2019-02-17T19:30:15.755Z,3.65
2019-02-17T19:32:44.656Z,3.63
2019-02-17T19:35:14.916Z,3.61
2019-02-17T19:37:43.503Z,3.54
2019-02-17T19:40:15.214Z,3.75
2019-02-17T19:42:44.129Z,3.51
2019-02-17T19:45:15.807Z,3.44
2019-02-17T19:47:44.405Z,3.34
2019-02-17T19:50:14.202Z,3.31
2019-02-17T19:52:42.811Z,3.43
2019-02-17T19:55:12.834Z,3.44
2019-02-17T19:57:41.805Z,3.44
2019-02-17T20:00:17.421Z,3.39
2019-02-17T20:03:03.821Z,3.31
2019-02-17T20:05:51.693Z,3.37
2019-02-17T20:08:13.819Z,3.37
2019-02-17T20:10:42.417Z,3.41
2019-02-17T20:13:10.977Z,3.41
2019-02-17T20:15:39.487Z,3.25
2019-02-17T20:18:08.041Z,3.17
2019-02-17T20:20:36.980Z,3.15
2019-02-17T20:23:05.611Z,3.23
2019-02-17T20:25:34.102Z,3.11
2019-02-17T20:28:02.601Z,3.11
2019-02-17T20:30:31.145Z,3.16
2019-02-17T20:32:59.820Z,3.22
2019-02-17T20:35:28.369Z,3.06
2019-02-17T20:37:56.967Z,2.96
2019-02-17T20:40:25.559Z,3.08
2019-02-17T20:42:54.208Z,2.89
2019-02-17T20:45:22.718Z,2.90
2019-02-17T20:47:51.310Z,2.79
2019-02-17T20:50:20.300Z,2.77
2019-02-17T20:52:48.845Z,2.80
2019-02-17T20:55:17.394Z,2.75
2019-02-17T20:57:45.974Z,2.75
2019-02-17T21:00:18.253Z,2.69
2019-02-17T21:02:46.846Z,2.72
2019-02-17T21:05:15.964Z,2.70
2019-02-17T21:07:44.578Z,2.74
2019-02-17T21:10:14.753Z,2.76
2019-02-17T21:12:43.411Z,2.89
2019-02-17T21:15:21.907Z,2.86
2019-02-17T21:17:51.054Z,2.67
2019-02-17T21:20:20.523Z,2.63
2019-02-17T21:22:49.181Z,2.52
2019-02-17T21:25:17.718Z,2.51
2019-02-17T21:27:46.405Z,2.59
2019-02-17T21:30:19.595Z,2.75
2019-02-17T21:32:48.777Z,2.54
2019-02-17T21:35:17.696Z,2.41
2019-02-17T21:37:46.390Z,2.41
2019-02-17T21:40:15.289Z,2.46
2019-02-17T21:42:43.980Z,2.36
2019-02-17T21:45:14.707Z,2.35
2019-02-17T21:47:43.285Z,2.31
2019-02-17T21:50:15.710Z,2.24
2019-02-17T21:52:44.345Z,2.23
2019-02-17T21:55:14.485Z,2.24
2019-02-17T21:57:43.086Z,2.24
2019-02-17T22:00:19.944Z,2.24
2019-02-17T22:02:49.443Z,2.17
2019-02-17T22:05:18.228Z,2.19
2019-02-17T22:07:46.917Z,2.18
2019-02-17T22:10:17.184Z,2.26
2019-02-17T22:12:45.823Z,2.26
2019-02-17T22:15:16.628Z,2.04
2019-02-17T22:17:46.288Z,2.31
2019-02-17T22:20:14.934Z,2.33
2019-02-17T22:22:43.515Z,2.26
2019-02-17T22:25:13.229Z,2.20
2019-02-17T22:27:41.865Z,2.06
2019-02-17T22:30:14.929Z,2.12
2019-02-17T22:32:43.687Z,2.28
2019-02-17T22:35:12.299Z,2.11
2019-02-17T22:37:40.950Z,1.98
2019-02-17T22:40:16.482Z,1.95
2019-02-17T22:42:45.034Z,1.96
2019-02-17T22:45:14.891Z,2.02
2019-02-17T22:47:43.533Z,1.93
2019-02-17T22:50:13.787Z,1.85
2019-02-17T22:52:42.300Z,1.82
2019-02-17T22:55:12.190Z,1.81
2019-02-17T22:57:40.764Z,1.84
2019-02-17T23:00:40.932Z,1.92
2019-02-17T23:03:09.938Z,1.87
2019-02-17T23:05:38.790Z,1.85
2019-02-17T23:08:07.750Z,1.79
2019-02-17T23:10:36.299Z,1.76
2019-02-17T23:13:04.882Z,1.73
2019-02-17T23:15:33.519Z,1.70
2019-02-17T23:18:02.111Z,1.64
2019-02-17T23:20:30.995Z,1.69
2019-02-17T23:22:59.527Z,1.58
2019-02-17T23:25:28.126Z,1.65
2019-02-17T23:27:56.753Z,1.88
2019-02-17T23:30:25.273Z,2.03
2019-02-17T23:32:53.929Z,2.17
2019-02-17T23:35:22.450Z,2.09
2019-02-17T23:37:51.042Z,1.75
2019-02-17T23:40:19.591Z,1.82
2019-02-17T23:42:48.149Z,1.66
2019-02-17T23:45:16.666Z,1.86
2019-02-17T23:47:45.272Z,1.63
2019-02-17T23:50:14.555Z,1.49
2019-02-17T23:52:43.744Z,1.48
2019-02-17T23:55:12.608Z,1.75
2019-02-17T23:57:41.240Z,1.80
